createdAt,value
2023-09-28T00:01:18.680Z,21.70
2023-09-28T00:03:48.597Z,21.80
2023-09-28T00:06:17.268Z,21.60
2023-09-28T00:08:46.188Z,21.60
2023-09-28T00:11:14.239Z,21.60
2023-09-28T00:13:43.166Z,21.50
2023-09-28T00:16:11.861Z,21.50
2023-09-28T00:18:42.271Z,21.60
2023-09-28T00:21:10.065Z,21.50
2023-09-28T00:23:38.889Z,21.50
2023-09-28T00:26:08.489Z,21.40
2023-09-28T00:28:38.825Z,21.40
2023-09-28T00:31:07.673Z,21.40
2023-09-28T00:33:35.420Z,21.40
2023-09-28T00:36:06.104Z,21.40
2023-09-28T00:38:33.914Z,21.40
2023-09-28T00:41:02.926Z,21.30
2023-09-28T00:43:30.991Z,21.20
2023-09-28T00:46:01.002Z,21.10
2023-09-28T00:48:28.975Z,21.10
2023-09-28T00:51:01.101Z,21.10
2023-09-28T00:53:30.942Z,21.00
2023-09-28T00:56:01.525Z,21.10
2023-09-28T00:58:29.358Z,21.00
2023-09-28T01:01:01.653Z,21.00
2023-09-28T01:03:29.524Z,20.80
2023-09-28T01:05:59.378Z,20.80
2023-09-28T01:08:27.768Z,20.80
2023-09-28T01:10:58.205Z,20.80
2023-09-28T01:13:28.476Z,20.80
2023-09-28T01:15:56.834Z,20.80
2023-09-28T01:18:25.711Z,20.80
2023-09-28T01:20:53.705Z,20.70
2023-09-28T01:23:24.726Z,20.70
2023-09-28T01:25:53.302Z,20.60
2023-09-28T01:28:22.367Z,20.70
2023-09-28T01:30:51.593Z,20.70
2023-09-28T01:33:19.327Z,20.60
2023-09-28T01:35:49.106Z,20.70
2023-09-28T01:38:21.154Z,20.60
2023-09-28T01:40:51.986Z,20.60
2023-09-28T01:43:19.989Z,20.50
2023-09-28T01:45:50.657Z,20.50
2023-09-28T01:48:18.556Z,20.50
2023-09-28T01:50:47.280Z,20.30
2023-09-28T01:53:15.067Z,20.40
2023-09-28T01:55:43.854Z,20.40
2023-09-28T01:58:13.591Z,20.40
2023-09-28T02:00:46.042Z,20.40
2023-09-28T02:03:16.118Z,20.40
2023-09-28T02:05:45.326Z,20.30
2023-09-28T02:08:12.986Z,20.20
2023-09-28T02:10:42.310Z,20.20
2023-09-28T02:13:10.323Z,20.10
2023-09-28T02:15:43.658Z,20.10
2023-09-28T02:18:11.529Z,20.10
2023-09-28T02:20:40.464Z,20.10
2023-09-28T02:23:10.788Z,20.10
2023-09-28T02:25:40.171Z,20.20
2023-09-28T02:28:07.949Z,20.10
2023-09-28T02:30:36.833Z,20.10
2023-09-28T02:33:09.278Z,20.10
2023-09-28T02:35:39.992Z,20.20
2023-09-28T02:38:08.815Z,20.10
2023-09-28T02:40:37.680Z,20.20
2023-09-28T02:43:06.485Z,20.10
2023-09-28T02:45:34.712Z,20.30
2023-09-28T02:48:05.252Z,20.30
2023-09-28T02:50:34.993Z,20.30
2023-09-28T02:53:04.751Z,20.30
2023-09-28T02:55:36.375Z,20.40
2023-09-28T02:58:06.653Z,20.30
2023-09-28T03:00:34.671Z,20.30
2023-09-28T03:03:06.184Z,20.30
2023-09-28T03:05:35.812Z,20.40
2023-09-28T03:08:06.283Z,20.30
2023-09-28T03:10:34.210Z,20.30
2023-09-28T03:13:03.191Z,20.30
2023-09-28T03:15:33.077Z,20.20
2023-09-28T03:18:00.781Z,20.10
2023-09-28T03:20:31.388Z,20.10
2023-09-28T03:23:00.732Z,20.00
2023-09-28T03:25:29.751Z,20.00
2023-09-28T03:27:58.182Z,20.00
2023-09-28T03:30:28.066Z,20.00
2023-09-28T03:32:57.671Z,20.00
2023-09-28T03:35:27.452Z,19.80
2023-09-28T03:37:58.870Z,19.80
2023-09-28T03:40:34.830Z,19.80
2023-09-28T03:43:04.157Z,19.80
2023-09-28T03:45:33.048Z,19.70
2023-09-28T03:48:01.765Z,19.60
2023-09-28T03:50:30.538Z,19.60
2023-09-28T03:52:59.440Z,19.60
2023-09-28T03:55:29.632Z,19.50
2023-09-28T03:58:03.054Z,19.60
2023-09-28T04:00:32.582Z,19.50
2023-09-28T04:03:01.469Z,19.60
2023-09-28T04:05:30.304Z,19.60
2023-09-28T04:07:59.447Z,19.70
2023-09-28T04:10:29.677Z,19.60
2023-09-28T04:13:02.356Z,19.50
2023-09-28T04:15:32.085Z,19.40
2023-09-28T04:18:01.690Z,19.50
2023-09-28T04:20:30.933Z,19.40
2023-09-28T04:23:00.274Z,19.40
2023-09-28T04:25:30.724Z,19.40
2023-09-28T04:27:59.547Z,19.40
2023-09-28T04:30:28.723Z,19.30
2023-09-28T04:32:57.452Z,19.20
2023-09-28T04:35:26.310Z,19.10
2023-09-28T04:37:55.029Z,19.10
2023-09-28T04:40:26.340Z,19.10
2023-09-28T04:42:56.811Z,19.20
2023-09-28T04:45:25.556Z,19.10
2023-09-28T04:47:54.353Z,19.00
2023-09-28T04:50:23.747Z,19.00
2023-09-28T04:52:52.670Z,18.90
2023-09-28T04:55:21.384Z,18.90
2023-09-28T04:57:49.711Z,18.90
2023-09-28T05:00:21.389Z,18.80
2023-09-28T05:02:50.210Z,18.80
2023-09-28T05:05:19.330Z,18.80
2023-09-28T05:07:48.365Z,18.70
2023-09-28T05:10:17.529Z,18.70
2023-09-28T05:12:46.296Z,18.80
2023-09-28T05:15:16.467Z,18.70
2023-09-28T05:17:46.708Z,18.70
2023-09-28T05:20:15.729Z,18.70
2023-09-28T05:22:44.817Z,18.60
2023-09-28T05:25:13.819Z,18.50
2023-09-28T05:27:42.638Z,18.50
2023-09-28T05:30:13.389Z,18.50
2023-09-28T05:32:42.239Z,18.40
2023-09-28T05:35:12.457Z,18.30
2023-09-28T05:37:41.399Z,18.40
2023-09-28T05:40:11.805Z,18.30
2023-09-28T05:42:40.957Z,18.20
2023-09-28T05:45:11.499Z,18.30
2023-09-28T05:47:40.298Z,18.30
2023-09-28T05:50:09.955Z,18.20
2023-09-28T05:52:42.710Z,18.20
2023-09-28T05:55:11.850Z,18.20
2023-09-28T05:57:40.762Z,18.10
2023-09-28T06:00:11.278Z,18.10
2023-09-28T06:02:40.100Z,18.10
2023-09-28T06:05:10.958Z,18.00
2023-09-28T06:07:41.476Z,18.10
2023-09-28T06:10:10.869Z,18.10
2023-09-28T06:12:39.583Z,18.10
2023-09-28T06:15:10.419Z,18.10
2023-09-28T06:17:39.443Z,18.10
2023-09-28T06:20:10.156Z,18.10
2023-09-28T06:22:41.631Z,18.20
2023-09-28T06:25:10.840Z,18.30
2023-09-28T06:27:40.283Z,18.20
2023-09-28T06:30:10.451Z,18.30
2023-09-28T06:32:39.302Z,18.40
2023-09-28T06:35:10.353Z,18.20
2023-09-28T06:37:40.912Z,18.20
2023-09-28T06:40:11.782Z,18.20
2023-09-28T06:42:43.727Z,18.20
2023-09-28T06:45:13.755Z,18.30
2023-09-28T06:47:55.469Z,18.40
2023-09-28T06:50:30.341Z,18.30
2023-09-28T06:53:00.655Z,18.30
2023-09-28T06:55:29.542Z,18.20
2023-09-28T06:57:58.752Z,18.30
2023-09-28T07:00:27.709Z,18.40
2023-09-28T07:02:56.583Z,18.40
2023-09-28T07:05:25.492Z,18.40
2023-09-28T07:07:54.509Z,18.40
2023-09-28T07:10:24.636Z,18.50
2023-09-28T07:12:53.388Z,18.50
2023-09-28T07:15:23.585Z,18.50
2023-09-28T07:17:52.444Z,18.50
2023-09-28T07:20:21.920Z,18.60
2023-09-28T07:22:50.995Z,18.70
2023-09-28T07:25:22.803Z,18.70
2023-09-28T07:27:53.464Z,18.70
2023-09-28T07:30:23.816Z,18.80
2023-09-28T07:32:53.055Z,18.70
2023-09-28T07:35:22.062Z,18.70
2023-09-28T07:37:51.072Z,18.60
2023-09-28T07:40:35.947Z,18.50
2023-09-28T07:43:16.241Z,18.50
2023-09-28T07:45:46.181Z,18.50
2023-09-28T07:48:15.454Z,18.70
2023-09-28T07:50:44.377Z,18.80
2023-09-28T07:53:13.126Z,18.90
2023-09-28T07:55:42.658Z,19.10
2023-09-28T07:58:25.463Z,19.10
2023-09-28T08:00:57.581Z,18.90
2023-09-28T08:03:27.738Z,19.00
2023-09-28T08:05:56.616Z,19.10
2023-09-28T08:08:26.506Z,19.20
2023-09-28T08:10:59.045Z,19.20
2023-09-28T08:13:27.875Z,19.30
2023-09-28T08:16:01.269Z,19.40
2023-09-28T08:18:30.225Z,19.40
2023-09-28T08:21:09.446Z,19.30
2023-09-28T08:23:41.956Z,19.30
2023-09-28T08:26:12.087Z,19.20
2023-09-28T08:28:40.888Z,19.20
2023-09-28T08:31:12.338Z,19.30
2023-09-28T08:33:41.105Z,19.40
2023-09-28T08:36:11.465Z,19.30
2023-09-28T08:38:40.423Z,19.40
2023-09-28T08:41:12.226Z,19.40
2023-09-28T08:43:44.533Z,19.30
2023-09-28T08:46:16.954Z,19.40
2023-09-28T08:48:47.760Z,19.40
2023-09-28T08:51:17.888Z,19.40
2023-09-28T08:53:51.291Z,19.50
2023-09-28T08:56:21.047Z,19.50
2023-09-28T08:58:50.241Z,19.60
2023-09-28T09:01:21.182Z,19.70
2023-09-28T09:03:51.531Z,19.80
2023-09-28T09:06:24.214Z,19.70
2023-09-28T09:08:55.834Z,19.70
2023-09-28T09:11:25.483Z,19.80
2023-09-28T09:13:57.628Z,19.90
2023-09-28T09:16:29.857Z,20.00
2023-09-28T09:18:59.342Z,20.30
2023-09-28T09:21:40.167Z,20.50
2023-09-28T09:24:11.538Z,20.50
2023-09-28T09:26:42.052Z,20.60
2023-09-28T09:29:11.786Z,20.60
2023-09-28T09:31:43.752Z,20.50
2023-09-28T09:34:13.740Z,20.50
2023-09-28T09:36:43.512Z,20.70
2023-09-28T09:39:23.963Z,20.60
2023-09-28T09:41:53.234Z,20.80
2023-09-28T09:44:23.124Z,20.80
2023-09-28T09:46:54.965Z,20.90
2023-09-28T09:49:25.771Z,20.90
2023-09-28T09:51:56.333Z,20.80
2023-09-28T09:54:25.147Z,20.70
2023-09-28T09:56:54.919Z,20.80
2023-09-28T09:59:25.105Z,20.60
2023-09-28T10:01:56.674Z,20.50
2023-09-28T10:04:28.175Z,20.50
2023-09-28T10:06:58.043Z,20.50
2023-09-28T10:09:28.940Z,20.50
2023-09-28T10:12:00.800Z,20.60
2023-09-28T10:14:29.751Z,20.60
2023-09-28T10:17:00.918Z,20.60
2023-09-28T10:19:30.719Z,20.40
2023-09-28T10:22:00.896Z,20.30
2023-09-28T10:24:33.023Z,20.20
2023-09-28T10:27:12.878Z,20.40
2023-09-28T10:29:42.202Z,20.40
2023-09-28T10:32:30.972Z,20.40
2023-09-28T10:35:19.615Z,20.50
2023-09-28T10:38:21.888Z,20.80
2023-09-28T10:41:04.258Z,20.90
2023-09-28T10:43:36.189Z,20.80
2023-09-28T10:46:05.670Z,20.70
2023-09-28T10:48:40.943Z,20.60
2023-09-28T10:51:14.020Z,20.60
2023-09-28T10:53:43.182Z,20.60
2023-09-28T10:56:12.902Z,20.60
2023-09-28T10:58:43.616Z,20.60
2023-09-28T11:01:12.973Z,20.60
2023-09-28T11:03:44.375Z,20.70
2023-09-28T11:06:14.176Z,20.80
2023-09-28T11:08:44.750Z,21.00
2023-09-28T11:11:13.670Z,21.20
2023-09-28T11:13:42.608Z,21.20
2023-09-28T11:16:12.827Z,21.20
2023-09-28T11:18:44.026Z,21.20
2023-09-28T11:21:13.369Z,21.20
2023-09-28T11:23:42.618Z,21.40
2023-09-28T11:26:12.411Z,21.50
2023-09-28T11:28:41.667Z,21.60
2023-09-28T11:31:12.933Z,21.50
2023-09-28T11:33:44.087Z,21.40
2023-09-28T11:36:18.355Z,21.40
2023-09-28T11:38:47.855Z,21.30
2023-09-28T11:41:17.207Z,21.50
2023-09-28T11:43:48.026Z,21.50
2023-09-28T11:46:20.721Z,21.50
2023-09-28T11:49:03.609Z,21.60
2023-09-28T11:51:33.303Z,21.80
2023-09-28T11:54:02.890Z,21.80
2023-09-28T11:56:31.665Z,21.90
2023-09-28T11:59:00.380Z,22.00
2023-09-28T12:01:29.797Z,22.10
2023-09-28T12:04:00.808Z,22.20
2023-09-28T12:06:30.065Z,22.30
2023-09-28T12:08:58.998Z,22.30
2023-09-28T12:11:27.857Z,22.40
2023-09-28T12:13:56.801Z,22.60
2023-09-28T12:16:27.320Z,22.80
2023-09-28T12:18:56.328Z,22.80
2023-09-28T12:21:26.719Z,22.80
2023-09-28T12:23:57.147Z,22.30
2023-09-28T12:26:26.299Z,22.00
2023-09-28T12:28:55.164Z,21.80
2023-09-28T12:31:25.039Z,21.90
2023-09-28T12:33:56.050Z,21.90
2023-09-28T12:36:26.429Z,21.90
2023-09-28T12:38:55.209Z,21.90
2023-09-28T12:41:24.352Z,21.80
2023-09-28T12:43:54.241Z,21.90
2023-09-28T12:46:23.760Z,22.00
2023-09-28T12:48:54.107Z,22.30
2023-09-28T12:51:23.657Z,22.50
2023-09-28T12:53:54.040Z,22.70
2023-09-28T12:56:24.626Z,22.90
2023-09-28T12:58:53.532Z,22.70
2023-09-28T13:01:23.990Z,22.70
2023-09-28T13:03:53.991Z,22.60
2023-09-28T13:06:23.411Z,22.60
2023-09-28T13:08:53.642Z,22.60
2023-09-28T13:11:23.145Z,22.70
2023-09-28T13:13:52.870Z,22.70
2023-09-28T13:16:23.680Z,22.80
2023-09-28T13:18:52.684Z,22.80
2023-09-28T13:21:21.387Z,22.90
2023-09-28T13:23:58.653Z,22.90
2023-09-28T13:26:37.069Z,23.10
2023-09-28T13:29:06.303Z,23.00
2023-09-28T13:31:36.611Z,23.20
2023-09-28T13:34:05.962Z,23.20
2023-09-28T13:36:35.163Z,23.30
2023-09-28T13:39:05.602Z,23.40
2023-09-28T13:41:37.762Z,23.40
2023-09-28T13:44:08.522Z,23.30
2023-09-28T13:46:37.456Z,23.40
2023-09-28T13:49:06.670Z,23.50
2023-09-28T13:51:35.385Z,23.50
2023-09-28T13:54:04.177Z,23.50
2023-09-28T13:56:38.855Z,23.60
2023-09-28T13:59:11.140Z,23.60
2023-09-28T14:01:42.210Z,23.60
2023-09-28T14:04:12.275Z,23.50
2023-09-28T14:06:41.388Z,23.10
2023-09-28T14:09:12.547Z,22.90
2023-09-28T14:11:42.894Z,22.80
2023-09-28T14:14:15.836Z,22.90
2023-09-28T14:16:45.560Z,22.90
2023-09-28T14:19:14.613Z,22.80
2023-09-28T14:21:44.253Z,22.70
2023-09-28T14:24:13.567Z,22.90
2023-09-28T14:26:44.022Z,22.90
2023-09-28T14:29:14.765Z,22.90
2023-09-28T14:31:44.833Z,23.00
2023-09-28T14:34:14.240Z,23.00
2023-09-28T14:36:43.462Z,23.00
2023-09-28T14:39:12.260Z,23.10
2023-09-28T14:41:42.564Z,23.20
2023-09-28T14:44:12.348Z,23.10
2023-09-28T14:46:42.747Z,23.10
2023-09-28T14:49:11.634Z,23.20
2023-09-28T14:51:40.335Z,23.30
2023-09-28T14:54:09.368Z,23.40
2023-09-28T14:56:38.341Z,23.40
2023-09-28T14:59:07.393Z,23.40
2023-09-28T15:01:36.332Z,23.50
2023-09-28T15:04:08.901Z,23.50
2023-09-28T15:06:38.168Z,23.40
2023-09-28T15:09:07.042Z,23.30
2023-09-28T15:11:35.922Z,23.40
2023-09-28T15:14:04.761Z,23.00
2023-09-28T15:16:33.598Z,22.80
2023-09-28T15:19:02.514Z,22.80
2023-09-28T15:21:32.613Z,22.80
2023-09-28T15:24:09.178Z,22.50
2023-09-28T15:26:38.305Z,22.50
2023-09-28T15:29:09.137Z,22.60
2023-09-28T15:31:40.059Z,22.70
2023-09-28T15:34:09.056Z,22.60
2023-09-28T15:36:39.256Z,22.50
2023-09-28T15:39:08.787Z,22.40
2023-09-28T15:41:40.005Z,22.40
2023-09-28T15:44:09.428Z,22.40
2023-09-28T15:46:38.542Z,22.30
2023-09-28T15:49:07.924Z,22.30
2023-09-28T15:51:38.444Z,22.40
2023-09-28T15:54:07.663Z,22.40
2023-09-28T15:56:36.580Z,22.30
2023-09-28T15:59:05.922Z,22.30
2023-09-28T16:01:35.260Z,22.30
2023-09-28T16:04:04.265Z,22.40
2023-09-28T16:06:34.603Z,22.40
2023-09-28T16:09:05.571Z,22.30
2023-09-28T16:11:34.291Z,22.30
2023-09-28T16:14:03.730Z,22.20
2023-09-28T16:16:33.876Z,22.30
2023-09-28T16:19:03.595Z,22.20
2023-09-28T16:21:32.626Z,22.10
2023-09-28T16:24:01.867Z,21.90
2023-09-28T16:26:32.141Z,21.80
2023-09-28T16:29:01.324Z,21.80
2023-09-28T16:31:30.180Z,21.80
2023-09-28T16:33:58.867Z,21.90
2023-09-28T16:36:27.790Z,22.00
2023-09-28T16:38:56.867Z,22.00
2023-09-28T16:41:25.920Z,22.00
2023-09-28T16:43:56.182Z,22.00
2023-09-28T16:46:25.413Z,22.10
2023-09-28T16:48:54.520Z,22.20
2023-09-28T16:51:23.489Z,22.30
2023-09-28T16:53:52.818Z,22.20
2023-09-28T16:56:21.772Z,22.10
2023-09-28T16:58:50.591Z,22.00
2023-09-28T17:01:20.949Z,22.00
2023-09-28T17:03:50.805Z,21.90
2023-09-28T17:06:21.615Z,21.70
2023-09-28T17:08:50.476Z,21.70
2023-09-28T17:11:19.428Z,21.70
2023-09-28T17:13:48.226Z,21.60
2023-09-28T17:16:17.076Z,21.60
2023-09-28T17:18:47.507Z,21.60
2023-09-28T17:21:16.333Z,21.60
2023-09-28T17:23:45.370Z,21.50
2023-09-28T17:26:16.210Z,21.50
2023-09-28T17:28:45.198Z,21.30
2023-09-28T17:31:15.335Z,21.20
2023-09-28T17:33:45.162Z,21.10
2023-09-28T17:36:15.468Z,21.10
2023-09-28T17:38:44.281Z,21.00
2023-09-28T17:41:13.191Z,21.00
2023-09-28T17:43:42.283Z,21.00
2023-09-28T17:46:11.193Z,20.90
2023-09-28T17:48:40.229Z,20.90
2023-09-28T17:51:08.957Z,20.90
2023-09-28T17:53:39.267Z,20.90
2023-09-28T17:56:08.028Z,20.80
2023-09-28T17:58:36.844Z,20.80
2023-09-28T18:01:05.661Z,20.70
2023-09-28T18:03:34.595Z,20.60
2023-09-28T18:06:03.573Z,20.60
2023-09-28T18:08:36.373Z,20.50
2023-09-28T18:11:07.228Z,20.40
2023-09-28T18:13:37.521Z,20.50
2023-09-28T18:16:06.508Z,20.40
2023-09-28T18:18:35.343Z,20.50
2023-09-28T18:21:04.530Z,20.40
2023-09-28T18:23:33.615Z,20.30
2023-09-28T18:26:02.348Z,20.40
2023-09-28T18:28:37.550Z,20.40
2023-09-28T18:31:06.769Z,20.40
2023-09-28T18:33:39.210Z,20.30
2023-09-28T18:36:08.062Z,20.30
2023-09-28T18:38:36.815Z,20.30
2023-09-28T18:41:06.180Z,20.20
2023-09-28T18:43:36.227Z,20.10
2023-09-28T18:46:05.110Z,20.10
2023-09-28T18:48:34.047Z,20.00
2023-09-28T18:51:02.898Z,20.00
2023-09-28T18:53:31.736Z,20.00
2023-09-28T18:56:00.442Z,20.00
2023-09-28T18:58:29.227Z,20.00
2023-09-28T19:00:59.447Z,20.00
2023-09-28T19:03:29.278Z,19.90
2023-09-28T19:05:58.201Z,19.90
2023-09-28T19:08:27.162Z,19.80
2023-09-28T19:10:58.971Z,19.90
2023-09-28T19:13:28.335Z,19.90
2023-09-28T19:15:58.738Z,19.90
2023-09-28T19:18:27.609Z,19.90
2023-09-28T19:20:56.539Z,19.90
2023-09-28T19:23:25.404Z,19.90
2023-09-28T19:25:54.441Z,19.90
2023-09-28T19:28:23.471Z,19.80
2023-09-28T19:30:53.006Z,19.80
2023-09-28T19:33:23.900Z,19.80
2023-09-28T19:35:53.199Z,19.80
2023-09-28T19:38:22.156Z,19.80
2023-09-28T19:40:51.082Z,19.80
2023-09-28T19:43:19.886Z,19.80
2023-09-28T19:45:48.758Z,19.70
2023-09-28T19:48:17.856Z,19.70
2023-09-28T19:50:48.436Z,19.70
2023-09-28T19:53:17.689Z,19.60
2023-09-28T19:55:46.474Z,19.40
2023-09-28T19:58:15.373Z,19.40
2023-09-28T20:00:44.101Z,19.40
2023-09-28T20:03:13.077Z,19.40
2023-09-28T20:05:42.040Z,19.40
2023-09-28T20:08:12.193Z,19.30
2023-09-28T20:10:41.543Z,19.40
2023-09-28T20:13:10.373Z,19.40
2023-09-28T20:15:39.433Z,19.40
2023-09-28T20:18:08.741Z,19.40
2023-09-28T20:20:37.747Z,19.40
2023-09-28T20:23:06.651Z,19.40
2023-09-28T20:25:36.956Z,19.40
2023-09-28T20:28:06.390Z,19.40
2023-09-28T20:30:37.894Z,19.40
2023-09-28T20:33:07.724Z,19.50
2023-09-28T20:35:36.659Z,19.60
2023-09-28T20:38:06.028Z,19.60
2023-09-28T20:40:36.155Z,19.50
2023-09-28T20:43:05.223Z,19.50
2023-09-28T20:45:38.255Z,19.50
2023-09-28T20:48:08.263Z,19.50
2023-09-28T20:50:37.593Z,19.50
2023-09-28T20:53:06.532Z,19.50
2023-09-28T20:55:37.129Z,19.60
2023-09-28T20:58:06.481Z,19.60
2023-09-28T21:00:36.120Z,19.60
2023-09-28T21:03:05.777Z,19.60
2023-09-28T21:05:36.547Z,19.60
2023-09-28T21:08:05.807Z,19.60
2023-09-28T21:10:37.816Z,19.50
2023-09-28T21:13:06.769Z,19.50
2023-09-28T21:15:35.570Z,19.40
2023-09-28T21:18:04.647Z,19.60
2023-09-28T21:20:33.504Z,19.60
2023-09-28T21:23:02.283Z,19.60
2023-09-28T21:25:31.073Z,19.60
2023-09-28T21:28:01.451Z,19.60
2023-09-28T21:30:30.230Z,19.60
2023-09-28T21:32:59.433Z,19.50
2023-09-28T21:35:28.430Z,19.40
2023-09-28T21:37:57.102Z,19.50
2023-09-28T21:40:25.872Z,19.50
2023-09-28T21:42:54.493Z,19.50
2023-09-28T21:45:24.660Z,19.60
2023-09-28T21:47:53.430Z,19.60
2023-09-28T21:50:22.528Z,19.60
2023-09-28T21:52:51.352Z,19.70
2023-09-28T21:55:20.227Z,19.70
2023-09-28T21:57:49.010Z,19.70
2023-09-28T22:00:23.472Z,19.70
2023-09-28T22:02:54.519Z,19.70
2023-09-28T22:05:23.597Z,19.70
2023-09-28T22:07:52.638Z,19.70
2023-09-28T22:10:21.570Z,19.70
2023-09-28T22:12:50.417Z,19.70
2023-09-28T22:15:19.191Z,19.70
2023-09-28T22:17:47.849Z,19.70
2023-09-28T22:20:18.620Z,19.70
2023-09-28T22:22:48.409Z,19.70
2023-09-28T22:25:18.006Z,19.70
2023-09-28T22:27:46.899Z,19.70
2023-09-28T22:30:15.833Z,19.70
2023-09-28T22:32:44.883Z,19.70
2023-09-28T22:35:14.452Z,19.70
2023-09-28T22:37:44.679Z,19.70
2023-09-28T22:40:27.038Z,19.70
2023-09-28T22:42:58.475Z,19.70
2023-09-28T22:45:27.665Z,19.70
2023-09-28T22:47:57.002Z,19.70
2023-09-28T22:50:25.965Z,19.80
2023-09-28T22:52:56.148Z,19.80
2023-09-28T22:55:24.962Z,19.80
2023-09-28T22:57:53.789Z,19.80
2023-09-28T23:00:22.514Z,19.80
2023-09-28T23:02:52.144Z,19.70
2023-09-28T23:05:21.003Z,19.70
2023-09-28T23:07:49.699Z,19.70
2023-09-28T23:10:19.837Z,19.70
2023-09-28T23:12:49.371Z,19.60
2023-09-28T23:15:18.501Z,19.70
2023-09-28T23:17:47.521Z,19.70
2023-09-28T23:20:16.612Z,19.70
2023-09-28T23:22:45.890Z,19.80
2023-09-28T23:25:18.688Z,19.80
2023-09-28T23:27:49.502Z,19.80
2023-09-28T23:30:20.818Z,19.80
2023-09-28T23:32:51.468Z,19.80
2023-09-28T23:35:24.314Z,19.80
2023-09-28T23:37:55.621Z,19.90
2023-09-28T23:40:25.586Z,19.90
2023-09-28T23:42:57.486Z,19.90
2023-09-28T23:45:29.195Z,19.80
2023-09-28T23:47:59.059Z,19.80
2023-09-28T23:50:28.427Z,19.80
2023-09-28T23:52:57.334Z,19.80
2023-09-28T23:55:26.294Z,19.60
2023-09-28T23:57:56.382Z,19.60
